createdAt,value
2022-10-02T00:00:40.373Z,15.90
2022-10-02T00:01:51.653Z,15.90
2022-10-02T00:03:00.709Z,15.90
2022-10-02T00:04:04.394Z,15.90
2022-10-02T00:05:27.824Z,15.90
2022-10-02T00:06:39.717Z,15.90
2022-10-02T00:08:04.919Z,15.90
2022-10-02T00:09:14.519Z,16.00
2022-10-02T00:10:33.856Z,16.00
2022-10-02T00:11:45.228Z,16.00
2022-10-02T00:12:51.473Z,16.00
2022-10-02T00:13:58.749Z,15.90
2022-10-02T00:15:13.121Z,16.00
2022-10-02T00:16:40.424Z,16.00
2022-10-02T00:17:46.546Z,16.00
2022-10-02T00:18:49.652Z,15.90
2022-10-02T00:19:55.630Z,15.90
2022-10-02T00:21:09.960Z,15.90
2022-10-02T00:22:27.456Z,15.90
2022-10-02T00:23:39.470Z,15.90
2022-10-02T00:24:55.949Z,15.90
2022-10-02T00:26:20.388Z,15.90
2022-10-02T00:27:41.511Z,15.90
2022-10-02T00:28:49.040Z,15.90
2022-10-02T00:29:57.778Z,15.90
2022-10-02T00:31:05.910Z,15.90
2022-10-02T00:32:12.937Z,15.90
2022-10-02T00:33:26.734Z,15.90
2022-10-02T00:34:46.901Z,15.90
2022-10-02T00:36:05.661Z,15.90
2022-10-02T00:37:16.520Z,16.00
2022-10-02T00:38:30.033Z,16.00
2022-10-02T00:39:46.150Z,16.00
2022-10-02T00:41:20.159Z,16.00
2022-10-02T00:42:28.198Z,16.00
2022-10-02T00:43:41.803Z,16.00
2022-10-02T00:44:43.388Z,15.90
2022-10-02T00:46:09.593Z,15.90
2022-10-02T00:47:17.472Z,15.90
2022-10-02T00:48:28.521Z,15.90
2022-10-02T00:49:33.317Z,15.90
2022-10-02T00:51:08.451Z,15.90
2022-10-02T00:52:48.070Z,15.90
2022-10-02T00:53:56.119Z,15.90
2022-10-02T00:55:11.894Z,15.80
2022-10-02T00:56:23.802Z,15.80
2022-10-02T00:57:48.300Z,15.80
2022-10-02T00:59:20.097Z,15.80
2022-10-02T01:00:23.269Z,15.80
2022-10-02T01:01:42.610Z,15.80
2022-10-02T01:03:10.137Z,15.80
2022-10-02T01:04:20.336Z,15.70
2022-10-02T01:05:22.343Z,15.70
2022-10-02T01:06:27.044Z,15.70
2022-10-02T01:07:29.210Z,15.70
2022-10-02T01:08:31.493Z,15.70
2022-10-02T01:09:34.193Z,15.70
2022-10-02T01:10:38.443Z,15.70
2022-10-02T01:11:40.206Z,15.70
2022-10-02T01:12:42.810Z,15.80
2022-10-02T01:13:44.752Z,15.80
2022-10-02T01:14:47.421Z,15.70
2022-10-02T01:15:54.578Z,15.80
2022-10-02T01:16:56.252Z,15.80
2022-10-02T01:17:58.774Z,15.80
2022-10-02T01:19:01.645Z,15.80
2022-10-02T01:20:06.376Z,15.90
2022-10-02T01:21:33.473Z,15.90
2022-10-02T01:22:39.248Z,15.90
2022-10-02T01:24:19.860Z,15.90
2022-10-02T01:25:21.525Z,15.90
2022-10-02T01:26:23.371Z,15.90
2022-10-02T01:27:26.143Z,15.90
2022-10-02T01:28:29.776Z,15.90
2022-10-02T01:29:32.696Z,15.90
2022-10-02T01:30:38.568Z,15.90
2022-10-02T01:31:40.468Z,15.90
2022-10-02T01:32:51.886Z,15.90
2022-10-02T01:33:53.895Z,16.00
2022-10-02T01:34:56.545Z,16.00
2022-10-02T01:35:58.444Z,16.00
2022-10-02T01:37:00.529Z,16.00
2022-10-02T01:38:07.175Z,16.00
2022-10-02T01:39:09.136Z,16.00
2022-10-02T01:40:23.137Z,16.00
2022-10-02T01:41:25.221Z,16.00
2022-10-02T01:42:26.906Z,16.00
2022-10-02T01:43:32.348Z,16.10
2022-10-02T01:44:34.169Z,16.00
2022-10-02T01:45:56.055Z,16.00
2022-10-02T01:47:29.056Z,16.10
2022-10-02T01:48:43.530Z,16.10
2022-10-02T01:49:47.963Z,16.10
2022-10-02T01:51:38.300Z,16.10
2022-10-02T01:53:07.180Z,16.10
2022-10-02T01:54:20.476Z,16.10
2022-10-02T01:55:55.203Z,16.10
2022-10-02T01:57:21.067Z,16.00
2022-10-02T01:58:33.711Z,16.00
2022-10-02T02:00:00.858Z,16.00
2022-10-02T02:01:17.309Z,16.00
2022-10-02T02:02:36.021Z,16.00
2022-10-02T02:03:58.999Z,16.00
2022-10-02T02:05:10.072Z,16.00
2022-10-02T02:06:51.369Z,16.00
2022-10-02T02:08:07.142Z,16.00
2022-10-02T02:09:11.592Z,16.00
2022-10-02T02:10:33.984Z,16.00
2022-10-02T02:11:43.632Z,16.00
2022-10-02T02:12:58.928Z,16.00
2022-10-02T02:14:25.404Z,16.00
2022-10-02T02:15:36.355Z,16.00
2022-10-02T02:16:49.920Z,16.00
2022-10-02T02:17:58.228Z,16.10
2022-10-02T02:19:26.017Z,16.10
2022-10-02T02:20:38.201Z,16.10
2022-10-02T02:21:44.125Z,16.10
2022-10-02T02:22:50.169Z,16.10
2022-10-02T02:23:55.381Z,16.10
2022-10-02T02:25:02.953Z,16.10
2022-10-02T02:26:09.675Z,16.10
2022-10-02T02:27:18.492Z,16.10
2022-10-02T02:28:23.457Z,16.10
2022-10-02T02:29:29.732Z,16.10
2022-10-02T02:30:33.194Z,16.10
2022-10-02T02:31:51.069Z,16.20
2022-10-02T02:32:55.880Z,16.20
2022-10-02T02:34:06.258Z,16.20
2022-10-02T02:35:12.201Z,16.20
2022-10-02T02:36:19.228Z,16.20
2022-10-02T02:37:25.426Z,16.20
2022-10-02T02:38:36.385Z,16.20
2022-10-02T02:39:51.169Z,16.20
2022-10-02T02:40:57.018Z,16.20
2022-10-02T02:42:04.795Z,16.20
2022-10-02T02:43:11.138Z,16.20
2022-10-02T02:44:41.934Z,16.20
2022-10-02T02:45:59.006Z,16.20
2022-10-02T02:47:13.468Z,16.20
2022-10-02T02:48:25.932Z,16.20
2022-10-02T02:49:40.857Z,16.20
2022-10-02T02:50:53.519Z,16.20
2022-10-02T02:51:59.856Z,16.20
2022-10-02T02:53:14.017Z,16.20
2022-10-02T02:54:29.271Z,16.20
2022-10-02T02:56:05.613Z,16.20
2022-10-02T02:57:10.701Z,16.20
2022-10-02T02:58:18.491Z,16.20
2022-10-02T02:59:22.766Z,16.20
2022-10-02T03:00:25.520Z,16.20
2022-10-02T03:01:27.860Z,16.20
2022-10-02T03:02:29.657Z,16.20
2022-10-02T03:03:32.763Z,16.20
2022-10-02T03:04:34.516Z,16.30
2022-10-02T03:05:42.450Z,16.20
2022-10-02T03:06:47.083Z,16.30
2022-10-02T03:07:57.500Z,16.20
2022-10-02T03:09:01.180Z,16.30
2022-10-02T03:10:16.052Z,16.30
2022-10-02T03:11:46.409Z,16.30
2022-10-02T03:12:47.954Z,16.30
2022-10-02T03:14:04.849Z,16.30
2022-10-02T03:15:34.391Z,16.30
2022-10-02T03:17:14.725Z,16.30
2022-10-02T03:18:33.521Z,16.30
2022-10-02T03:19:40.560Z,16.20
2022-10-02T03:20:52.171Z,16.20
2022-10-02T03:22:12.022Z,16.20
2022-10-02T03:23:45.408Z,16.20
2022-10-02T03:25:05.549Z,16.10
2022-10-02T03:26:19.010Z,16.20
2022-10-02T03:27:34.705Z,16.20
2022-10-02T03:28:56.645Z,16.20
2022-10-02T03:30:09.007Z,16.20
2022-10-02T03:31:12.533Z,16.20
2022-10-02T03:32:16.556Z,16.20
2022-10-02T03:33:18.443Z,16.20
2022-10-02T03:34:20.851Z,16.20
2022-10-02T03:35:24.882Z,16.20
2022-10-02T03:36:27.140Z,16.20
2022-10-02T03:37:29.412Z,16.20
2022-10-02T03:38:33.198Z,16.20
2022-10-02T03:39:34.947Z,16.20
2022-10-02T03:40:36.630Z,16.20
2022-10-02T03:41:38.327Z,16.20
2022-10-02T03:42:40.288Z,16.20
2022-10-02T03:43:42.040Z,16.20
2022-10-02T03:44:44.189Z,16.20
2022-10-02T03:45:51.401Z,16.20
2022-10-02T03:46:53.726Z,16.20
2022-10-02T03:47:55.806Z,16.20
2022-10-02T03:48:57.538Z,16.20
2022-10-02T03:49:59.285Z,16.20
2022-10-02T03:51:00.960Z,16.20
2022-10-02T03:52:02.596Z,16.20
2022-10-02T03:53:18.997Z,16.20
2022-10-02T03:54:22.271Z,16.20
2022-10-02T03:55:36.405Z,16.20
2022-10-02T03:56:47.689Z,16.20
2022-10-02T03:57:49.871Z,16.20
2022-10-02T03:58:54.733Z,16.20
2022-10-02T04:00:14.509Z,16.20
2022-10-02T04:01:39.566Z,16.20
2022-10-02T04:02:54.079Z,16.20
2022-10-02T04:04:15.015Z,16.10
2022-10-02T04:05:35.560Z,16.10
2022-10-02T04:06:47.605Z,16.10
2022-10-02T04:07:53.723Z,16.10
2022-10-02T04:09:02.825Z,16.10
2022-10-02T04:10:15.526Z,16.10
2022-10-02T04:11:20.190Z,16.10
2022-10-02T04:12:31.028Z,16.10
2022-10-02T04:13:41.384Z,16.10
2022-10-02T04:14:57.812Z,16.10
2022-10-02T04:16:09.505Z,16.10
2022-10-02T04:17:23.833Z,16.20
2022-10-02T04:18:38.701Z,16.20
2022-10-02T04:19:59.264Z,16.20
2022-10-02T04:21:11.657Z,16.20
2022-10-02T04:22:48.189Z,16.20
2022-10-02T04:23:55.459Z,16.20
2022-10-02T04:25:05.419Z,16.20
2022-10-02T04:26:14.516Z,16.20
2022-10-02T04:27:23.979Z,16.20
2022-10-02T04:28:33.277Z,16.20
2022-10-02T04:29:59.849Z,16.20
2022-10-02T04:31:02.735Z,16.20
2022-10-02T04:32:16.741Z,16.20
2022-10-02T04:33:20.344Z,16.30
2022-10-02T04:34:21.948Z,16.20
2022-10-02T04:35:39.058Z,16.20
2022-10-02T04:37:20.074Z,16.30
2022-10-02T04:38:33.894Z,16.20
2022-10-02T04:39:57.308Z,16.20
2022-10-02T04:42:05.099Z,16.20
2022-10-02T04:43:21.016Z,16.20
2022-10-02T04:44:54.973Z,16.20
2022-10-02T04:46:33.724Z,16.20
2022-10-02T04:47:51.250Z,16.20
2022-10-02T04:49:22.645Z,16.20
2022-10-02T04:50:48.516Z,16.10
2022-10-02T04:52:25.834Z,16.10
2022-10-02T04:53:46.480Z,16.10
2022-10-02T04:55:25.631Z,16.10
2022-10-02T04:56:48.397Z,16.10
2022-10-02T04:58:22.100Z,16.10
2022-10-02T04:59:40.609Z,16.10
2022-10-02T05:01:00.253Z,16.10
2022-10-02T05:02:26.630Z,16.10
2022-10-02T05:03:43.998Z,16.10
2022-10-02T05:04:54.783Z,16.10
2022-10-02T05:06:25.521Z,16.10
2022-10-02T05:07:41.781Z,16.10
2022-10-02T05:09:10.963Z,16.10
2022-10-02T05:10:39.606Z,16.10
2022-10-02T05:13:43.662Z,16.10
2022-10-02T05:15:03.768Z,16.10
2022-10-02T05:16:32.424Z,16.10
2022-10-02T05:17:56.325Z,16.10
2022-10-02T05:19:10.483Z,16.10
2022-10-02T05:20:24.074Z,16.10
2022-10-02T05:21:58.801Z,16.10
2022-10-02T05:23:17.987Z,16.10
2022-10-02T05:24:37.929Z,16.10
2022-10-02T05:25:58.062Z,16.10
2022-10-02T05:27:09.583Z,16.10
2022-10-02T05:28:32.704Z,16.10
2022-10-02T05:29:38.212Z,16.10
2022-10-02T05:31:04.379Z,16.10
2022-10-02T05:32:36.633Z,16.10
2022-10-02T05:34:10.797Z,16.10
2022-10-02T05:35:32.370Z,16.10
2022-10-02T05:36:59.982Z,16.10
2022-10-02T05:38:13.615Z,16.10
2022-10-02T05:39:26.221Z,16.10
2022-10-02T05:40:40.023Z,16.10
2022-10-02T05:42:00.014Z,16.10
2022-10-02T05:43:01.724Z,16.10
2022-10-02T05:44:20.291Z,16.10
2022-10-02T05:45:35.999Z,16.10
2022-10-02T05:46:52.406Z,16.10
2022-10-02T05:48:21.613Z,16.10
2022-10-02T05:49:34.098Z,16.10
2022-10-02T05:50:37.824Z,16.00
2022-10-02T05:51:53.691Z,16.10
2022-10-02T05:53:06.237Z,16.00
2022-10-02T05:54:22.456Z,16.10
2022-10-02T05:55:25.713Z,16.10
2022-10-02T05:56:44.771Z,16.00
2022-10-02T05:57:52.173Z,16.10
2022-10-02T05:59:02.393Z,16.00
2022-10-02T06:00:04.486Z,16.10
2022-10-02T06:01:29.778Z,16.10
2022-10-02T06:02:59.377Z,16.10
2022-10-02T06:04:09.868Z,16.10
2022-10-02T06:05:55.447Z,16.10
2022-10-02T06:07:03.371Z,16.10
2022-10-02T06:08:10.008Z,16.10
2022-10-02T06:09:23.184Z,16.10
2022-10-02T06:10:35.788Z,16.00
2022-10-02T06:11:59.461Z,16.00
2022-10-02T06:13:24.523Z,16.00
2022-10-02T06:14:52.258Z,16.00
2022-10-02T06:16:05.742Z,16.10
2022-10-02T06:17:27.456Z,16.00
2022-10-02T06:18:33.526Z,16.00
2022-10-02T06:19:49.869Z,16.10
2022-10-02T06:20:59.399Z,16.10
2022-10-02T06:22:14.761Z,16.10
2022-10-02T06:23:24.848Z,16.10
2022-10-02T06:24:36.311Z,16.10
2022-10-02T06:25:47.275Z,16.10
2022-10-02T06:27:04.214Z,16.10
2022-10-02T06:28:17.594Z,16.10
2022-10-02T06:29:27.477Z,16.10
2022-10-02T06:30:32.172Z,16.10
2022-10-02T06:31:39.271Z,16.10
2022-10-02T06:32:57.969Z,16.10
2022-10-02T06:33:59.642Z,16.10
2022-10-02T06:35:06.597Z,16.10
2022-10-02T06:36:17.926Z,16.10
2022-10-02T06:37:41.310Z,16.20
2022-10-02T06:39:00.834Z,16.20
2022-10-02T06:40:24.187Z,16.20
2022-10-02T06:41:54.151Z,16.20
2022-10-02T06:43:05.928Z,16.20
2022-10-02T06:44:20.268Z,16.20
2022-10-02T06:45:59.050Z,16.20
2022-10-02T06:47:24.108Z,16.20
2022-10-02T06:48:40.966Z,16.20
2022-10-02T06:50:00.001Z,16.20
2022-10-02T06:51:35.396Z,16.20
2022-10-02T06:53:06.435Z,16.20
2022-10-02T06:54:21.035Z,16.20
2022-10-02T06:55:32.417Z,16.20
2022-10-02T06:56:58.447Z,16.20
2022-10-02T06:58:18.307Z,16.20
2022-10-02T07:00:02.789Z,16.20
2022-10-02T07:01:46.746Z,16.20
2022-10-02T07:03:09.732Z,16.20
2022-10-02T07:04:26.325Z,16.20
2022-10-02T07:05:54.083Z,16.10
2022-10-02T07:07:06.978Z,16.10
2022-10-02T07:08:20.256Z,16.10
2022-10-02T07:09:36.673Z,16.10
2022-10-02T07:11:04.294Z,16.10
2022-10-02T07:12:17.820Z,16.10
2022-10-02T07:13:28.643Z,16.10
2022-10-02T07:15:00.672Z,16.10
2022-10-02T07:16:11.181Z,16.10
2022-10-02T07:17:40.400Z,16.00
2022-10-02T07:19:15.022Z,16.00
2022-10-02T07:20:40.265Z,16.10
2022-10-02T07:22:43.317Z,16.10
2022-10-02T07:23:52.382Z,16.10
2022-10-02T07:25:19.803Z,16.10
2022-10-02T07:26:36.111Z,16.10
2022-10-02T07:27:56.604Z,16.00
2022-10-02T07:29:19.497Z,16.00
2022-10-02T07:30:21.171Z,16.10
2022-10-02T07:32:05.449Z,16.00
2022-10-02T07:33:19.407Z,16.00
2022-10-02T07:34:36.054Z,16.00
2022-10-02T07:35:44.966Z,16.10
2022-10-02T07:37:10.908Z,16.00
2022-10-02T07:38:54.497Z,16.10
2022-10-02T07:40:30.363Z,16.10
2022-10-02T07:42:03.362Z,16.10
2022-10-02T07:43:23.456Z,16.10
2022-10-02T07:44:46.435Z,16.10
2022-10-02T07:46:14.865Z,16.10
2022-10-02T07:47:41.628Z,16.00
2022-10-02T07:49:19.192Z,16.00
2022-10-02T07:50:41.331Z,16.00
2022-10-02T07:52:10.878Z,16.00
2022-10-02T07:53:15.908Z,16.00
2022-10-02T07:54:26.272Z,16.00
2022-10-02T07:55:28.463Z,16.00
2022-10-02T07:56:32.298Z,16.00
2022-10-02T07:57:55.407Z,16.00
2022-10-02T07:59:08.188Z,16.10
2022-10-02T08:00:18.144Z,16.10
2022-10-02T08:01:32.863Z,16.10
2022-10-02T08:02:49.725Z,16.30
2022-10-02T08:03:56.812Z,16.10
2022-10-02T08:05:02.107Z,16.10
2022-10-02T08:06:05.427Z,16.20
2022-10-02T08:07:07.057Z,16.10
2022-10-02T08:08:26.865Z,16.10
2022-10-02T08:09:41.290Z,16.20
2022-10-02T08:10:48.543Z,16.20
2022-10-02T08:12:03.598Z,16.20
2022-10-02T08:13:20.507Z,16.20
2022-10-02T08:14:47.549Z,16.20
2022-10-02T08:15:54.902Z,16.20
2022-10-02T08:17:02.120Z,16.10
2022-10-02T08:18:35.248Z,16.10
2022-10-02T08:19:43.295Z,16.10
2022-10-02T08:20:46.597Z,16.10
2022-10-02T08:21:55.605Z,16.10
2022-10-02T08:23:25.163Z,16.10
2022-10-02T08:24:36.658Z,16.10
2022-10-02T08:25:46.101Z,16.10
2022-10-02T08:27:09.306Z,16.10
2022-10-02T08:28:37.978Z,16.10
2022-10-02T08:30:06.425Z,16.10
2022-10-02T08:31:11.899Z,16.10
2022-10-02T08:32:14.431Z,16.10
2022-10-02T08:33:20.375Z,16.20
2022-10-02T08:34:26.037Z,16.20
2022-10-02T08:35:40.652Z,16.20
2022-10-02T08:37:08.201Z,16.30
2022-10-02T08:38:15.903Z,16.30
2022-10-02T08:39:26.920Z,16.30
2022-10-02T08:40:50.515Z,16.30
2022-10-02T08:42:23.431Z,16.40
2022-10-02T08:43:39.231Z,16.40
2022-10-02T08:45:02.330Z,16.40
2022-10-02T08:46:33.226Z,16.40
2022-10-02T08:47:48.271Z,16.50
2022-10-02T08:49:26.006Z,16.50
2022-10-02T08:50:46.483Z,16.50
2022-10-02T08:52:18.155Z,16.50
2022-10-02T08:53:35.682Z,16.80
2022-10-02T08:54:56.339Z,16.60
2022-10-02T08:56:19.998Z,16.60
2022-10-02T08:57:37.726Z,16.60
2022-10-02T08:59:19.157Z,16.60
2022-10-02T09:00:49.284Z,16.60
2022-10-02T09:02:02.899Z,16.70
2022-10-02T09:03:26.160Z,16.70
2022-10-02T09:05:03.339Z,16.60
2022-10-02T09:06:13.866Z,16.60
2022-10-02T09:07:39.526Z,16.60
2022-10-02T09:09:15.484Z,16.60
2022-10-02T09:10:45.763Z,16.60
2022-10-02T09:11:47.422Z,16.60
2022-10-02T09:12:58.307Z,16.60
2022-10-02T09:14:39.605Z,16.70
2022-10-02T09:16:19.813Z,16.60
2022-10-02T09:17:43.932Z,16.60
2022-10-02T09:19:27.887Z,16.60
2022-10-02T09:20:54.563Z,16.60
2022-10-02T09:22:17.728Z,16.70
2022-10-02T09:23:41.186Z,16.70
2022-10-02T09:25:18.782Z,16.70
2022-10-02T09:26:34.522Z,16.70
2022-10-02T09:28:08.338Z,16.70
2022-10-02T09:29:50.158Z,16.80
2022-10-02T09:31:14.859Z,16.80
2022-10-02T09:32:34.472Z,16.80
2022-10-02T09:34:03.661Z,16.80
2022-10-02T09:35:14.502Z,16.80
2022-10-02T09:36:45.760Z,16.80
2022-10-02T09:38:00.143Z,16.90
2022-10-02T09:39:34.139Z,16.90
2022-10-02T09:41:13.610Z,16.90
2022-10-02T09:42:48.847Z,16.90
2022-10-02T09:44:19.553Z,16.90
2022-10-02T09:45:49.010Z,16.90
2022-10-02T09:46:53.318Z,16.90
2022-10-02T09:48:23.085Z,16.90
2022-10-02T09:50:12.185Z,16.90
2022-10-02T09:51:40.154Z,16.90
2022-10-02T09:52:56.147Z,16.90
2022-10-02T09:54:22.523Z,16.90
2022-10-02T09:55:50.256Z,16.90
2022-10-02T09:57:31.678Z,16.90
2022-10-02T09:59:04.217Z,16.90
2022-10-02T10:00:21.838Z,16.90
2022-10-02T10:02:09.837Z,16.80
2022-10-02T10:03:51.039Z,16.90
2022-10-02T10:05:07.361Z,16.80
2022-10-02T10:06:40.273Z,16.80
2022-10-02T10:07:51.077Z,16.70
2022-10-02T10:08:55.218Z,16.70
2022-10-02T10:10:38.283Z,16.70
2022-10-02T10:11:51.510Z,16.60
2022-10-02T10:13:37.629Z,16.70
2022-10-02T10:15:23.629Z,16.70
2022-10-02T10:16:45.981Z,16.70
2022-10-02T10:18:17.894Z,16.80
2022-10-02T10:19:34.478Z,16.80
2022-10-02T10:20:36.661Z,16.80
2022-10-02T10:22:03.946Z,16.80
2022-10-02T10:23:27.439Z,16.80
2022-10-02T10:24:56.632Z,16.80
2022-10-02T10:26:45.361Z,16.60
2022-10-02T10:28:10.915Z,16.80
2022-10-02T10:29:38.922Z,16.80
2022-10-02T10:30:40.752Z,16.80
2022-10-02T10:32:16.910Z,16.80
2022-10-02T10:34:13.616Z,16.80
2022-10-02T10:35:28.458Z,16.90
2022-10-02T10:37:24.146Z,16.90
2022-10-02T10:39:00.263Z,17.00
2022-10-02T10:40:36.012Z,17.00
2022-10-02T10:41:49.700Z,16.90
2022-10-02T10:43:13.330Z,17.00
2022-10-02T10:44:55.542Z,17.00
2022-10-02T10:46:19.594Z,17.00
2022-10-02T10:47:30.591Z,17.00
2022-10-02T10:48:49.514Z,17.00
2022-10-02T10:50:17.767Z,16.90
2022-10-02T10:51:25.470Z,16.90
2022-10-02T10:53:04.116Z,16.80
2022-10-02T10:54:11.408Z,16.80
2022-10-02T10:55:22.914Z,16.80
2022-10-02T10:56:37.079Z,16.80
2022-10-02T10:57:38.714Z,16.80
2022-10-02T10:58:53.910Z,16.80
2022-10-02T11:00:16.709Z,16.80
2022-10-02T11:01:26.954Z,16.80
2022-10-02T11:03:29.241Z,16.80
2022-10-02T11:05:06.717Z,16.80
2022-10-02T11:06:14.441Z,16.80
2022-10-02T11:07:26.232Z,16.70
2022-10-02T11:08:43.143Z,16.70
2022-10-02T11:09:53.713Z,16.70
2022-10-02T11:11:34.388Z,16.70
2022-10-02T11:13:11.908Z,16.80
2022-10-02T11:14:41.523Z,16.80
2022-10-02T11:16:02.803Z,16.80
2022-10-02T11:17:28.891Z,16.80
2022-10-02T11:18:59.937Z,16.80
2022-10-02T11:20:30.094Z,16.80
2022-10-02T11:21:47.109Z,16.80
2022-10-02T11:22:54.410Z,16.80
2022-10-02T11:23:58.849Z,16.80
2022-10-02T11:25:22.162Z,16.90
2022-10-02T11:26:32.316Z,16.90
2022-10-02T11:28:07.702Z,17.00
2022-10-02T11:29:40.295Z,17.00
2022-10-02T11:31:00.642Z,17.00
2022-10-02T11:32:33.344Z,17.00
2022-10-02T11:33:50.039Z,17.10
2022-10-02T11:35:19.542Z,17.10
2022-10-02T11:36:42.560Z,17.10
2022-10-02T11:38:19.490Z,17.10
2022-10-02T11:39:59.385Z,17.10
2022-10-02T11:41:20.965Z,17.10
2022-10-02T11:42:43.372Z,17.10
2022-10-02T11:43:59.678Z,17.10
2022-10-02T11:45:08.390Z,17.10
2022-10-02T11:46:50.074Z,17.10
2022-10-02T11:48:10.268Z,17.10
2022-10-02T11:49:30.330Z,17.10
2022-10-02T11:50:57.178Z,17.10
2022-10-02T11:52:34.216Z,17.10
2022-10-02T11:53:54.754Z,17.00
2022-10-02T11:55:23.698Z,17.00
2022-10-02T11:56:53.295Z,17.00
2022-10-02T11:58:23.781Z,17.00
2022-10-02T11:59:44.273Z,17.00
2022-10-02T12:01:24.459Z,17.10
2022-10-02T12:02:42.189Z,17.00
2022-10-02T12:04:20.887Z,17.00
2022-10-02T12:05:45.783Z,17.00
2022-10-02T12:07:09.636Z,17.00
2022-10-02T12:08:17.421Z,17.00
2022-10-02T12:09:40.191Z,17.00
2022-10-02T12:10:59.269Z,17.00
2022-10-02T12:12:38.357Z,17.00
2022-10-02T12:13:40.006Z,17.00
2022-10-02T12:15:09.718Z,17.10
2022-10-02T12:16:43.721Z,17.10
2022-10-02T12:18:17.121Z,17.10
2022-10-02T12:19:40.731Z,17.10
2022-10-02T12:21:10.438Z,17.20
2022-10-02T12:22:33.957Z,17.20
2022-10-02T12:23:57.447Z,17.20
2022-10-02T12:25:40.879Z,17.10
2022-10-02T12:27:34.125Z,17.10
2022-10-02T12:28:56.416Z,17.10
2022-10-02T12:30:08.388Z,17.00
2022-10-02T12:31:24.557Z,16.90
2022-10-02T12:32:40.405Z,16.90
2022-10-02T12:34:07.117Z,16.90
2022-10-02T12:35:39.601Z,16.90
2022-10-02T12:36:58.227Z,16.90
2022-10-02T12:38:16.267Z,16.90
2022-10-02T12:39:59.460Z,16.90
2022-10-02T12:41:11.191Z,16.90
2022-10-02T12:42:43.116Z,16.80
2022-10-02T12:44:13.583Z,16.80
2022-10-02T12:45:18.304Z,16.80
2022-10-02T12:46:49.203Z,16.80
2022-10-02T12:48:00.133Z,16.70
2022-10-02T12:49:30.884Z,16.80
2022-10-02T12:50:56.182Z,16.80
2022-10-02T12:52:04.111Z,16.80
2022-10-02T12:53:44.293Z,16.80
2022-10-02T12:55:12.957Z,16.80
2022-10-02T12:56:52.399Z,16.80
2022-10-02T12:58:22.653Z,16.70
2022-10-02T13:00:08.980Z,16.70
2022-10-02T13:01:54.302Z,16.70
2022-10-02T13:03:27.219Z,16.70
2022-10-02T13:04:59.668Z,16.70
2022-10-02T13:06:43.775Z,16.70
2022-10-02T13:08:14.240Z,16.70
2022-10-02T13:09:57.356Z,16.70
2022-10-02T13:11:07.107Z,16.70
2022-10-02T13:12:12.996Z,16.70
2022-10-02T13:13:28.370Z,16.70
2022-10-02T13:15:03.575Z,16.70
2022-10-02T13:16:46.669Z,16.80
2022-10-02T13:18:13.414Z,16.80
2022-10-02T13:19:55.882Z,16.80
2022-10-02T13:21:47.348Z,16.80
2022-10-02T13:23:41.014Z,16.80
2022-10-02T13:25:21.197Z,16.70
2022-10-02T13:26:33.969Z,16.80
2022-10-02T13:28:02.746Z,16.80
2022-10-02T13:29:20.926Z,16.70
2022-10-02T13:30:24.170Z,16.70
2022-10-02T13:31:47.532Z,16.70
2022-10-02T13:33:19.910Z,16.70
2022-10-02T13:35:19.859Z,16.80
2022-10-02T13:37:04.770Z,16.80
2022-10-02T13:38:36.106Z,16.80
2022-10-02T13:39:44.073Z,16.80
2022-10-02T13:41:13.167Z,16.80
2022-10-02T13:42:34.253Z,16.80
2022-10-02T13:44:03.615Z,16.80
2022-10-02T13:45:23.873Z,16.80
2022-10-02T13:46:37.221Z,16.80
2022-10-02T13:47:47.954Z,16.90
2022-10-02T13:48:59.556Z,16.80
2022-10-02T13:50:42.463Z,16.90
2022-10-02T13:52:02.373Z,16.90
2022-10-02T13:53:12.988Z,16.90
2022-10-02T13:54:17.743Z,17.00
2022-10-02T13:55:29.067Z,17.00
2022-10-02T13:56:59.444Z,17.00
2022-10-02T13:58:13.031Z,17.00
2022-10-02T13:59:33.575Z,17.10
2022-10-02T14:00:37.937Z,17.10
2022-10-02T14:02:17.351Z,17.10
2022-10-02T14:04:02.223Z,17.10
2022-10-02T14:05:19.594Z,17.10
2022-10-02T14:06:41.080Z,17.10
2022-10-02T14:08:14.058Z,17.10
2022-10-02T14:09:21.718Z,17.10
2022-10-02T14:10:54.249Z,17.00
2022-10-02T14:12:22.474Z,17.10
2022-10-02T14:13:55.216Z,17.10
2022-10-02T14:15:15.117Z,17.10
2022-10-02T14:16:58.111Z,17.10
2022-10-02T14:18:37.174Z,17.10
2022-10-02T14:20:05.270Z,17.20
2022-10-02T14:21:19.871Z,17.10
2022-10-02T14:22:42.111Z,17.10
2022-10-02T14:23:51.834Z,17.10
2022-10-02T14:25:08.566Z,17.10
2022-10-02T14:26:17.195Z,17.10
2022-10-02T14:27:40.351Z,17.10
2022-10-02T14:28:45.022Z,17.10
2022-10-02T14:29:59.459Z,17.10
2022-10-02T14:31:01.130Z,17.00
2022-10-02T14:32:15.331Z,17.00
2022-10-02T14:33:41.123Z,17.00
2022-10-02T14:35:31.411Z,16.90
2022-10-02T14:36:57.254Z,17.00
2022-10-02T14:37:59.095Z,17.00
2022-10-02T14:39:25.171Z,16.90
2022-10-02T14:40:43.688Z,16.90
2022-10-02T14:42:05.459Z,16.90
2022-10-02T14:43:16.578Z,17.00
2022-10-02T14:44:39.540Z,16.90
2022-10-02T14:46:03.267Z,16.90
2022-10-02T14:47:29.642Z,16.90
2022-10-02T14:48:47.164Z,16.90
2022-10-02T14:49:54.624Z,16.90
2022-10-02T14:50:56.258Z,16.80
2022-10-02T14:52:37.126Z,16.80
2022-10-02T14:54:11.905Z,16.90
2022-10-02T14:55:16.992Z,16.90
2022-10-02T14:56:21.781Z,16.80
2022-10-02T14:57:44.063Z,16.80
2022-10-02T14:59:09.939Z,16.80
2022-10-02T15:00:21.538Z,16.80
2022-10-02T15:01:26.448Z,16.80
2022-10-02T15:02:34.427Z,16.90
2022-10-02T15:04:05.155Z,16.80
2022-10-02T15:05:44.374Z,16.90
2022-10-02T15:07:14.605Z,16.70
2022-10-02T15:08:27.681Z,16.60
2022-10-02T15:09:53.815Z,16.60
2022-10-02T15:10:57.115Z,16.50
2022-10-02T15:12:05.955Z,16.60
2022-10-02T15:13:24.376Z,16.60
2022-10-02T15:14:57.445Z,16.60
2022-10-02T15:16:30.089Z,16.60
2022-10-02T15:18:08.933Z,16.50
2022-10-02T15:19:39.104Z,16.60
2022-10-02T15:21:01.787Z,16.50
2022-10-02T15:22:26.011Z,16.60
2022-10-02T15:23:34.714Z,16.50
2022-10-02T15:24:53.449Z,16.50
2022-10-02T15:25:58.086Z,16.50
2022-10-02T15:27:08.803Z,16.50
2022-10-02T15:28:36.850Z,16.50
2022-10-02T15:29:54.668Z,16.50
2022-10-02T15:31:06.946Z,16.40
2022-10-02T15:32:36.268Z,16.40
2022-10-02T15:33:49.181Z,16.40
2022-10-02T15:35:03.018Z,16.40
2022-10-02T15:36:18.469Z,16.40
2022-10-02T15:37:28.980Z,16.40
2022-10-02T15:38:30.725Z,16.40
2022-10-02T15:39:41.867Z,16.30
2022-10-02T15:41:02.323Z,16.30
2022-10-02T15:42:10.779Z,16.30
2022-10-02T15:43:12.418Z,16.30
2022-10-02T15:44:22.957Z,16.30
2022-10-02T15:45:55.701Z,16.30
2022-10-02T15:47:38.144Z,16.30
2022-10-02T15:49:06.665Z,16.30
2022-10-02T15:50:27.634Z,16.20
2022-10-02T15:51:58.062Z,16.20
2022-10-02T15:53:29.923Z,16.10
2022-10-02T15:54:52.506Z,16.10
2022-10-02T15:56:13.111Z,16.00
2022-10-02T15:57:39.961Z,16.00
2022-10-02T15:59:12.585Z,16.00
2022-10-02T16:00:22.866Z,16.00
2022-10-02T16:01:51.490Z,16.10
2022-10-02T16:03:06.006Z,16.10
2022-10-02T16:04:55.845Z,16.10
2022-10-02T16:06:12.701Z,16.10
2022-10-02T16:07:36.885Z,16.20
2022-10-02T16:09:05.218Z,16.20
2022-10-02T16:10:20.331Z,16.20
2022-10-02T16:11:38.228Z,16.20
2022-10-02T16:12:52.239Z,16.20
2022-10-02T16:14:05.971Z,16.20
2022-10-02T16:15:40.599Z,16.20
2022-10-02T16:16:45.909Z,16.20
2022-10-02T16:18:21.386Z,16.20
2022-10-02T16:19:42.773Z,16.20
2022-10-02T16:20:49.351Z,16.20
2022-10-02T16:22:22.351Z,16.20
2022-10-02T16:24:06.050Z,16.20
2022-10-02T16:25:34.335Z,16.20
2022-10-02T16:27:14.807Z,16.20
2022-10-02T16:28:51.634Z,16.10
2022-10-02T16:30:08.621Z,16.10
2022-10-02T16:31:24.171Z,16.10
2022-10-02T16:32:31.026Z,16.10
2022-10-02T16:33:51.877Z,16.10
2022-10-02T16:35:18.371Z,16.10
2022-10-02T16:36:30.259Z,16.10
2022-10-02T16:38:00.021Z,16.10
2022-10-02T16:39:33.756Z,16.10
2022-10-02T16:40:40.475Z,16.10
2022-10-02T16:42:13.575Z,16.10
2022-10-02T16:44:02.719Z,16.10
2022-10-02T16:45:22.375Z,16.10
2022-10-02T16:46:37.092Z,16.10
2022-10-02T16:47:48.464Z,16.10
2022-10-02T16:49:23.750Z,16.10
2022-10-02T16:50:33.081Z,16.10
2022-10-02T16:51:55.686Z,16.10
2022-10-02T16:52:59.122Z,16.10
2022-10-02T16:54:37.159Z,16.10
2022-10-02T16:55:46.610Z,16.10
2022-10-02T16:57:20.657Z,16.10
2022-10-02T16:58:43.078Z,16.10
2022-10-02T17:00:01.548Z,16.10
2022-10-02T17:01:15.663Z,16.10
2022-10-02T17:02:38.521Z,16.00
2022-10-02T17:04:05.939Z,16.00